Time;durP1;ratioP1;P1;durP2;ratioP2;P2;SDS_P1;SDS_P2;PMS_P1;PMS_P2;Temp;Humidity;BMP_temperature;BMP_pressure;BME280_temperature;BME280_humidity;BME280_pressure;Samples;Min_cycle;Max_cycle;Signal;HPM_P1;HPM_P2
2024/03/11 00:00:17;;;;;;;6.55;5.95;;;;;;;;;;6243757;23;20193;-46
2024/03/11 00:02:45;;;;;;;7.40;6.72;;;;;;;;;;6244323;23;20185;-46
2024/03/11 00:05:13;;;;;;;7.43;6.82;;;;;;;;;;6243770;22;20177;-49
2024/03/11 00:07:42;;;;;;;7.18;6.47;;;;;;;;;;6244955;22;20717;-47
2024/03/11 00:10:14;;;;;;;7.38;6.63;;;;;;;;;;6246033;23;20212;-50
2024/03/11 00:12:49;;;;;;;5.88;5.38;;;;;;;;;;6245982;23;20165;-46
2024/03/11 00:15:17;;;;;;;6.82;6.20;;;;;;;;;;6245998;23;20160;-47
2024/03/11 00:17:46;;;;;;;6.65;5.85;;;;;;;;;;6245615;22;20275;-51
2024/03/11 00:20:13;;;;;;;7.57;6.88;;;;;;;;;;6245861;22;20279;-47
2024/03/11 00:22:41;;;;;;;7.07;6.38;;;;;;;;;;6245698;22;20173;-49
2024/03/11 00:25:09;;;;;;;8.07;7.38;;;;;;;;;;6245675;22;20204;-48
2024/03/11 00:27:37;;;;;;;6.47;5.88;;;;;;;;;;6245622;22;20272;-48
2024/03/11 00:30:10;;;;;;;5.45;4.95;;;;;;;;;;6245196;22;20175;-47
2024/03/11 00:32:39;;;;;;;6.53;6.00;;;;;;;;;;6246095;23;20602;-47
2024/03/11 00:35:09;;;;;;;5.93;5.43;;;;;;;;;;6245890;23;20184;-46
2024/03/11 00:37:36;;;;;;;7.50;6.80;;;;;;;;;;6245680;23;20272;-48
2024/03/11 00:40:06;;;;;;;9.55;7.20;;;;;;;;;;6245633;23;20669;-49
2024/03/11 00:42:34;;;;;;;7.53;6.82;;;;;;;;;;6246250;23;20177;-46
2024/03/11 00:45:02;;;;;;;8.23;7.43;;;;;;;;;;6245894;23;20174;-47
2024/03/11 00:47:31;;;;;;;7.10;6.43;;;;;;;;;;6245260;22;20201;-48
2024/03/11 00:49:58;;;;;;;6.55;5.95;;;;;;;;;;6245842;23;20169;-48
2024/03/11 00:52:26;;;;;;;7.25;6.55;;;;;;;;;;6245159;22;20177;-48
2024/03/11 00:54:56;;;;;;;7.55;6.40;;;;;;;;;;6245030;22;20179;-49
2024/03/11 00:57:25;;;;;;;7.22;6.53;;;;;;;;;;6245481;23;20243;-47
2024/03/11 00:59:54;;;;;;;6.50;5.88;;;;;;;;;;6245589;23;20671;-47
2024/03/11 01:02:24;;;;;;;5.85;5.28;;;;;;;;;;6245815;23;20180;-48
2024/03/11 01:04:53;;;;;;;5.40;4.97;;;;;;;;;;6245709;23;20181;-48
2024/03/11 01:07:21;;;;;;;5.68;5.18;;;;;;;;;;6244736;22;20193;-47
2024/03/11 01:09:48;;;;;;;5.85;5.35;;;;;;;;;;6245209;22;20192;-51
2024/03/11 01:12:16;;;;;;;5.28;4.82;;;;;;;;;;6245396;22;20173;-48
2024/03/11 01:14:43;;;;;;;5.47;4.68;;;;;;;;;;6244948;22;20180;-48
2024/03/11 01:17:11;;;;;;;6.35;5.75;;;;;;;;;;6244657;22;20504;-46
2024/03/11 01:19:38;;;;;;;6.22;5.40;;;;;;;;;;6244104;22;20193;-48
2024/03/11 01:22:07;;;;;;;5.47;5.05;;;;;;;;;;6245207;22;20195;-48
2024/03/11 01:24:35;;;;;;;6.18;5.63;;;;;;;;;;6245069;22;20630;-48
2024/03/11 01:27:10;;;;;;;5.63;5.13;;;;;;;;;;6244736;22;20657;-49
2024/03/11 01:29:38;;;;;;;5.57;5.07;;;;;;;;;;6245140;23;20161;-46
2024/03/11 01:32:07;;;;;;;5.20;4.80;;;;;;;;;;6245497;23;20173;-49
2024/03/11 01:34:35;;;;;;;5.97;5.47;;;;;;;;;;6244371;23;20177;-50
2024/03/11 01:37:06;;;;;;;5.90;5.40;;;;;;;;;;6244507;22;20271;-51
2024/03/11 01:39:43;;;;;;;7.00;6.25;;;;;;;;;;6245136;23;20644;-49
2024/03/11 01:42:14;;;;;;;5.97;5.38;;;;;;;;;;6245249;23;20241;-48
2024/03/11 01:44:43;;;;;;;6.63;6.07;;;;;;;;;;6245004;23;20158;-49
2024/03/11 01:47:12;;;;;;;5.50;5.00;;;;;;;;;;6245153;23;20197;-46
2024/03/11 01:49:39;;;;;;;6.40;5.80;;;;;;;;;;6245163;23;20507;-46
2024/03/11 01:52:10;;;;;;;7.13;6.43;;;;;;;;;;6244532;22;20196;-46
2024/03/11 01:54:39;;;;;;;6.15;5.65;;;;;;;;;;6245350;22;20595;-49
2024/03/11 01:57:07;;;;;;;6.18;5.63;;;;;;;;;;6244155;22;20243;-47
2024/03/11 01:59:37;;;;;;;7.88;6.80;;;;;;;;;;6244918;23;20173;-47
2024/03/11 02:02:07;;;;;;;6.78;6.18;;;;;;;;;;6245213;23;20231;-46
2024/03/11 02:04:35;;;;;;;5.80;5.30;;;;;;;;;;6245012;23;20173;-48
2024/03/11 02:07:03;;;;;;;7.40;6.65;;;;;;;;;;6244744;22;20264;-46
2024/03/11 02:09:30;;;;;;;6.55;5.95;;;;;;;;;;6244767;22;20201;-46
2024/03/11 02:11:59;;;;;;;6.25;5.65;;;;;;;;;;6244558;22;20188;-50
2024/03/11 02:14:27;;;;;;;6.65;6.00;;;;;;;;;;6244783;22;20173;-46
2024/03/11 02:16:58;;;;;;;5.35;4.95;;;;;;;;;;6244151;22;20275;-45
2024/03/11 02:19:26;;;;;;;6.90;6.20;;;;;;;;;;6244788;23;20157;-47
2024/03/11 02:21:54;;;;;;;5.72;5.20;;;;;;;;;;6244664;22;20597;-48
2024/03/11 02:24:23;;;;;;;6.30;5.75;;;;;;;;;;6244493;22;20184;-46
2024/03/11 02:26:51;;;;;;;5.90;5.30;;;;;;;;;;6244620;22;20669;-47
2024/03/11 02:29:19;;;;;;;6.72;6.07;;;;;;;;;;6244497;22;20183;-46
2024/03/11 02:31:47;;;;;;;6.85;6.15;;;;;;;;;;6244921;22;20169;-46
2024/03/11 02:34:15;;;;;;;8.45;7.65;;;;;;;;;;6244446;22;20260;-49
2024/03/11 02:36:47;;;;;;;7.15;6.30;;;;;;;;;;6244482;23;20204;-47
2024/03/11 02:39:15;;;;;;;8.75;7.95;;;;;;;;;;6245047;23;20158;-50
2024/03/11 02:41:44;;;;;;;7.85;7.10;;;;;;;;;;6244854;23;20192;-50
2024/03/11 02:44:12;;;;;;;7.18;6.47;;;;;;;;;;6244977;22;20173;-47
2024/03/11 02:46:40;;;;;;;6.15;5.55;;;;;;;;;;6244725;22;20193;-50
2024/03/11 02:49:08;;;;;;;6.13;5.53;;;;;;;;;;6244780;23;20196;-48
2024/03/11 02:51:38;;;;;;;5.82;5.43;;;;;;;;;;6244967;22;20173;-50
2024/03/11 02:54:05;;;;;;;7.53;6.82;;;;;;;;;;6245114;23;20164;-47
2024/03/11 02:56:33;;;;;;;5.53;5.05;;;;;;;;;;6244876;23;20518;-47
2024/03/11 02:59:02;;;;;;;7.45;6.75;;;;;;;;;;6244373;22;20263;-49
2024/03/11 03:01:29;;;;;;;7.05;6.43;;;;;;;;;;6244716;22;20197;-49
2024/03/11 03:03:57;;;;;;;7.65;6.97;;;;;;;;;;6244499;22;20172;-50
2024/03/11 03:06:26;;;;;;;8.80;7.90;;;;;;;;;;6244062;22;20255;-52
2024/03/11 03:08:54;;;;;;;8.68;7.85;;;;;;;;;;6245056;23;20232;-50
2024/03/11 03:11:22;;;;;;;11.07;9.98;;;;;;;;;;6244709;22;20223;-49
2024/03/11 03:13:50;;;;;;;8.90;8.10;;;;;;;;;;6245063;23;20200;-54
2024/03/11 03:16:19;;;;;;;11.38;10.25;;;;;;;;;;6244125;22;20176;-50
2024/03/11 03:18:47;;;;;;;12.80;11.50;;;;;;;;;;6244237;22;20183;-53
2024/03/11 03:21:15;;;;;;;12.57;10.35;;;;;;;;;;6244553;22;20196;-51
2024/03/11 03:23:43;;;;;;;11.35;10.25;;;;;;;;;;6244637;22;20231;-50
2024/03/11 03:26:10;;;;;;;10.40;9.40;;;;;;;;;;6244204;22;20209;-49
2024/03/11 03:28:38;;;;;;;9.63;8.65;;;;;;;;;;6244609;22;20193;-51
2024/03/11 03:31:06;;;;;;;8.80;7.93;;;;;;;;;;6244206;22;20180;-49
2024/03/11 03:33:34;;;;;;;8.32;7.50;;;;;;;;;;6244546;23;20502;-49
2024/03/11 03:36:03;;;;;;;10.63;9.63;;;;;;;;;;6244068;22;20184;-49
2024/03/11 03:38:30;;;;;;;9.60;8.68;;;;;;;;;;6243870;22;20243;-49
2024/03/11 03:40:58;;;;;;;9.35;8.55;;;;;;;;;;6244398;22;20204;-48
2024/03/11 03:43:25;;;;;;;9.95;9.05;;;;;;;;;;6246817;22;20177;-49
2024/03/11 03:45:54;;;;;;;12.32;11.13;;;;;;;;;;6246205;22;20172;-50
2024/03/11 03:48:21;;;;;;;13.27;11.88;;;;;;;;;;6246314;22;20670;-50
2024/03/11 03:50:50;;;;;;;13.30;11.93;;;;;;;;;;6245797;22;20177;-52
2024/03/11 03:53:18;;;;;;;11.43;10.32;;;;;;;;;;6246029;22;20173;-52
2024/03/11 03:55:45;;;;;;;11.75;10.55;;;;;;;;;;6246603;22;20179;-51
2024/03/11 03:58:13;;;;;;;10.55;9.60;;;;;;;;;;6245917;22;20200;-55
2024/03/11 04:00:40;;;;;;;11.63;10.52;;;;;;;;;;6245661;22;20179;-52
2024/03/11 04:03:08;;;;;;;9.13;8.32;;;;;;;;;;6245636;22;20177;-54
2024/03/11 04:05:36;;;;;;;9.95;8.95;;;;;;;;;;6246472;22;20180;-53
2024/03/11 04:08:07;;;;;;;10.55;9.55;;;;;;;;;;6245970;22;20197;-49
2024/03/11 04:10:34;;;;;;;10.93;9.93;;;;;;;;;;6246573;23;20240;-54
2024/03/11 04:13:02;;;;;;;10.32;9.32;;;;;;;;;;6246190;22;20173;-48
2024/03/11 04:15:30;;;;;;;11.98;10.57;;;;;;;;;;6245842;22;20175;-50
2024/03/11 04:17:57;;;;;;;12.07;10.88;;;;;;;;;;6245618;22;20201;-50
2024/03/11 04:20:27;;;;;;;10.90;9.77;;;;;;;;;;6245540;22;20251;-50
2024/03/11 04:22:56;;;;;;;12.02;10.73;;;;;;;;;;6246352;23;20208;-49
2024/03/11 04:25:27;;;;;;;10.50;9.45;;;;;;;;;;6245482;22;20562;-53
2024/03/11 04:27:55;;;;;;;12.43;11.20;;;;;;;;;;6246226;23;20200;-50
2024/03/11 04:30:28;;;;;;;11.25;10.18;;;;;;;;;;6245984;22;20177;-49
2024/03/11 04:32:55;;;;;;;11.32;10.20;;;;;;;;;;6246278;22;20237;-51
2024/03/11 04:35:25;;;;;;;11.48;10.38;;;;;;;;;;6245575;22;20634;-51
2024/03/11 04:37:52;;;;;;;14.10;12.70;;;;;;;;;;6245742;22;20228;-51
2024/03/11 04:40:20;;;;;;;15.45;13.85;;;;;;;;;;6245516;22;20183;-52
2024/03/11 04:42:49;;;;;;;15.60;13.90;;;;;;;;;;6245420;22;20196;-53
2024/03/11 04:45:17;;;;;;;14.98;13.38;;;;;;;;;;6246236;22;20180;-50
2024/03/11 04:47:44;;;;;;;13.55;12.23;;;;;;;;;;6244473;22;20243;-53
2024/03/11 04:50:12;;;;;;;13.90;12.40;;;;;;;;;;6244696;22;20173;-52
2024/03/11 04:52:40;;;;;;;12.52;11.20;;;;;;;;;;6244731;22;20173;-51
2024/03/11 04:55:09;;;;;;;13.35;11.80;;;;;;;;;;6244795;22;20686;-53
2024/03/11 04:57:36;;;;;;;13.02;11.73;;;;;;;;;;6244795;22;20261;-53
2024/03/11 05:00:08;;;;;;;12.30;11.10;;;;;;;;;;6244648;22;20252;-53
2024/03/11 05:02:38;;;;;;;13.32;11.93;;;;;;;;;;6245475;22;20484;-48
2024/03/11 05:05:09;;;;;;;15.20;13.60;;;;;;;;;;6245475;22;20158;-52
2024/03/11 05:07:37;;;;;;;12.20;11.07;;;;;;;;;;6245205;22;20246;-49
2024/03/11 05:10:07;;;;;;;12.50;11.20;;;;;;;;;;6245320;22;20567;-52
2024/03/11 05:12:35;;;;;;;11.68;10.48;;;;;;;;;;6245533;22;20180;-50
2024/03/11 05:15:05;;;;;;;13.15;11.82;;;;;;;;;;6245482;22;20394;-51
2024/03/11 05:17:32;;;;;;;11.73;10.52;;;;;;;;;;6244511;22;20204;-54
2024/03/11 05:20:05;;;;;;;11.05;9.95;;;;;;;;;;6245167;22;20510;-52
2024/03/11 05:22:33;;;;;;;12.88;10.63;;;;;;;;;;6245063;23;20222;-51
2024/03/11 05:25:00;;;;;;;12.52;11.25;;;;;;;;;;6245143;22;20551;-53
2024/03/11 05:27:28;;;;;;;13.43;12.18;;;;;;;;;;6244460;22;20193;-51
2024/03/11 05:29:54;;;;;;;14.65;13.18;;;;;;;;;;6244941;22;20174;-49
2024/03/11 05:32:23;;;;;;;13.05;10.95;;;;;;;;;;6244827;22;20176;-51
2024/03/11 05:34:51;;;;;;;13.23;11.75;;;;;;;;;;6244869;22;20252;-53
2024/03/11 05:37:20;;;;;;;16.73;12.77;;;;;;;;;;6244380;22;20201;-50
2024/03/11 05:39:48;;;;;;;16.25;13.23;;;;;;;;;;6244712;22;20255;-51
2024/03/11 05:42:15;;;;;;;13.73;12.32;;;;;;;;;;6244960;22;20196;-53
2024/03/11 05:44:43;;;;;;;12.35;11.18;;;;;;;;;;6244215;22;20177;-51
2024/03/11 05:47:10;;;;;;;12.60;11.30;;;;;;;;;;6244637;22;20193;-50
2024/03/11 05:49:39;;;;;;;12.13;10.93;;;;;;;;;;6244432;22;20201;-54
2024/03/11 05:52:08;;;;;;;11.70;10.50;;;;;;;;;;6244368;22;20176;-52
2024/03/11 05:54:38;;;;;;;12.85;11.55;;;;;;;;;;6245041;22;20664;-53
2024/03/11 05:57:06;;;;;;;12.48;10.80;;;;;;;;;;6244584;23;20563;-54
2024/03/11 05:59:33;;;;;;;10.65;9.55;;;;;;;;;;6244004;22;20219;-54
2024/03/11 06:02:01;;;;;;;9.15;8.32;;;;;;;;;;6244562;22;20520;-52
2024/03/11 06:04:28;;;;;;;9.68;7.82;;;;;;;;;;6244572;22;20177;-50
2024/03/11 06:06:57;;;;;;;8.45;7.65;;;;;;;;;;6243872;22;20193;-54
2024/03/11 06:09:25;;;;;;;8.15;7.35;;;;;;;;;;6244411;22;20211;-54
2024/03/11 06:11:53;;;;;;;9.40;6.93;;;;;;;;;;6244281;22;20173;-50
2024/03/11 06:14:21;;;;;;;7.85;6.57;;;;;;;;;;6244955;23;20176;-53
2024/03/11 06:16:49;;;;;;;6.10;5.50;;;;;;;;;;6244641;22;20193;-52
2024/03/11 06:19:17;;;;;;;4.72;4.32;;;;;;;;;;6245093;22;20177;-55
2024/03/11 06:21:45;;;;;;;4.32;3.95;;;;;;;;;;6245071;22;20177;-55
2024/03/11 06:24:14;;;;;;;4.18;3.78;;;;;;;;;;6244849;22;20197;-53
2024/03/11 06:26:44;;;;;;;3.83;3.40;;;;;;;;;;6244763;23;20193;-54
2024/03/11 06:29:12;;;;;;;4.20;3.80;;;;;;;;;;6244880;23;20162;-56
2024/03/11 06:31:39;;;;;;;3.60;3.30;;;;;;;;;;6244267;22;20173;-51
2024/03/11 06:34:08;;;;;;;3.50;3.20;;;;;;;;;;6244783;22;20196;-53
2024/03/11 06:36:36;;;;;;;4.60;3.47;;;;;;;;;;6244514;23;20642;-52
2024/03/11 06:39:04;;;;;;;3.83;3.53;;;;;;;;;;6244406;22;20259;-54
2024/03/11 06:41:33;;;;;;;3.53;3.30;;;;;;;;;;6244755;22;20694;-53
2024/03/11 06:44:01;;;;;;;3.67;3.38;;;;;;;;;;6244243;22;20528;-52
2024/03/11 06:46:29;;;;;;;3.28;3.03;;;;;;;;;;6244607;22;20267;-53
2024/03/11 06:48:56;;;;;;;3.10;2.90;;;;;;;;;;6244925;23;20181;-54
2024/03/11 06:51:24;;;;;;;4.55;3.78;;;;;;;;;;6244639;22;20180;-52
2024/03/11 06:53:51;;;;;;;3.42;3.13;;;;;;;;;;6244434;22;20510;-52
2024/03/11 06:56:19;;;;;;;2.28;2.08;;;;;;;;;;6242671;23;20226;-51
2024/03/11 06:58:48;;;;;;;2.90;2.70;;;;;;;;;;6244159;22;20205;-52
2024/03/11 07:01:16;;;;;;;3.90;2.40;;;;;;;;;;6244673;22;20259;-52
2024/03/11 07:03:43;;;;;;;2.72;2.17;;;;;;;;;;6243895;22;20535;-52
2024/03/11 07:06:11;;;;;;;2.95;2.75;;;;;;;;;;6244253;22;20626;-50
2024/03/11 07:08:39;;;;;;;2.83;1.95;;;;;;;;;;6244606;22;20193;-52
2024/03/11 07:11:08;;;;;;;2.40;2.20;;;;;;;;;;6244350;22;20640;-53
2024/03/11 07:13:36;;;;;;;3.80;3.50;;;;;;;;;;6244345;23;20181;-52
2024/03/11 07:16:06;;;;;;;2.20;2.00;;;;;;;;;;6243970;23;20208;-50
2024/03/11 07:18:35;;;;;;;2.72;2.38;;;;;;;;;;6245028;23;20228;-52
2024/03/11 07:21:05;;;;;;;1.90;1.80;;;;;;;;;;6244813;23;20181;-50
2024/03/11 07:23:33;;;;;;;2.20;2.00;;;;;;;;;;6244718;23;20223;-50
2024/03/11 07:26:01;;;;;;;2.67;2.47;;;;;;;;;;6244730;22;20208;-49
2024/03/11 07:28:29;;;;;;;1.88;1.77;;;;;;;;;;6244043;22;20193;-49
2024/03/11 07:30:57;;;;;;;1.85;1.75;;;;;;;;;;6244632;23;20253;-51
2024/03/11 07:33:26;;;;;;;1.85;1.75;;;;;;;;;;6243984;22;20204;-50
2024/03/11 07:35:54;;;;;;;2.70;1.95;;;;;;;;;;6243678;22;20255;-50
2024/03/11 07:38:23;;;;;;;1.70;1.60;;;;;;;;;;6243901;22;20203;-53
2024/03/11 07:40:50;;;;;;;1.70;1.60;;;;;;;;;;6244695;23;20172;-51
2024/03/11 07:43:18;;;;;;;1.70;1.60;;;;;;;;;;6244314;22;20197;-50
2024/03/11 07:45:45;;;;;;;1.42;1.38;;;;;;;;;;6243994;22;20179;-51
2024/03/11 07:48:13;;;;;;;1.30;1.30;;;;;;;;;;6243684;22;20665;-50
2024/03/11 07:50:42;;;;;;;1.42;1.33;;;;;;;;;;6243965;22;20634;-50
2024/03/11 07:53:12;;;;;;;1.40;1.30;;;;;;;;;;6244960;22;20177;-50
2024/03/11 07:55:40;;;;;;;1.10;1.10;;;;;;;;;;6244846;23;20180;-47
2024/03/11 07:58:08;;;;;;;1.63;1.52;;;;;;;;;;6243874;22;20271;-47
2024/03/11 08:00:37;;;;;;;1.40;1.30;;;;;;;;;;6243997;22;20205;-46
2024/03/11 08:03:05;;;;;;;1.80;1.70;;;;;;;;;;6244778;23;20173;-48
2024/03/11 08:05:34;;;;;;;1.20;1.20;;;;;;;;;;6244312;22;20176;-49
2024/03/11 08:08:03;;;;;;;1.27;1.17;;;;;;;;;;6243990;23;20251;-45
2024/03/11 08:10:31;;;;;;;1.60;1.52;;;;;;;;;;6243956;22;20256;-47
2024/03/11 08:12:58;;;;;;;1.00;1.00;;;;;;;;;;6244141;22;20184;-48
2024/03/11 08:15:26;;;;;;;1.08;1.08;;;;;;;;;;6243993;22;20490;-46
2024/03/11 08:17:55;;;;;;;0.90;0.90;;;;;;;;;;6243679;22;20193;-47
2024/03/11 08:20:24;;;;;;;1.20;1.17;;;;;;;;;;6244583;23;20653;-46
2024/03/11 08:22:55;;;;;;;1.08;1.08;;;;;;;;;;6244065;23;20173;-48
2024/03/11 08:25:27;;;;;;;1.00;1.00;;;;;;;;;;6244665;22;20488;-49
2024/03/11 08:27:55;;;;;;;0.85;0.85;;;;;;;;;;6244677;23;20243;-46
2024/03/11 08:30:27;;;;;;;1.00;1.00;;;;;;;;;;6246471;22;20685;-50
2024/03/11 08:32:56;;;;;;;2.00;1.30;;;;;;;;;;6246334;23;20164;-50
2024/03/11 08:35:24;;;;;;;1.00;1.00;;;;;;;;;;6246073;22;20640;-49
2024/03/11 08:37:52;;;;;;;0.70;0.70;;;;;;;;;;6246131;22;20193;-45
2024/03/11 08:40:21;;;;;;;1.52;1.42;;;;;;;;;;6245675;22;20228;-45
2024/03/11 08:42:51;;;;;;;0.90;0.90;;;;;;;;;;6245873;23;20177;-46
2024/03/11 08:45:22;;;;;;;0.80;0.80;;;;;;;;;;6245727;22;20206;-48
2024/03/11 08:47:49;;;;;;;0.82;0.82;;;;;;;;;;6245950;23;20201;-47
2024/03/11 08:50:17;;;;;;;1.25;1.15;;;;;;;;;;6246262;22;20173;-50
2024/03/11 08:52:45;;;;;;;0.98;0.98;;;;;;;;;;6244770;23;20656;-49
2024/03/11 08:55:15;;;;;;;0.70;0.70;;;;;;;;;;6245589;23;20180;-49
2024/03/11 08:57:45;;;;;;;0.82;0.70;;;;;;;;;;6245471;23;20247;-47
2024/03/11 09:00:16;;;;;;;0.60;0.60;;;;;;;;;;6245631;23;20231;-47
2024/03/11 09:02:44;;;;;;;0.70;0.70;;;;;;;;;;6245925;23;20161;-48
2024/03/11 09:05:13;;;;;;;0.70;0.70;;;;;;;;;;6246001;22;20228;-47
2024/03/11 09:07:41;;;;;;;2.80;0.70;;;;;;;;;;6245601;23;20193;-46
2024/03/11 09:10:09;;;;;;;0.75;0.75;;;;;;;;;;6245653;22;20177;-46
2024/03/11 09:12:37;;;;;;;0.65;0.65;;;;;;;;;;6245629;22;20169;-51
2024/03/11 09:15:12;;;;;;;0.45;0.45;;;;;;;;;;6245580;23;20243;-47
2024/03/11 09:17:42;;;;;;;1.20;0.60;;;;;;;;;;6245479;23;20732;-48
2024/03/11 09:20:15;;;;;;;0.55;0.55;;;;;;;;;;6245212;23;20177;-47
2024/03/11 09:22:45;;;;;;;0.50;0.50;;;;;;;;;;6245497;22;20157;-47
2024/03/11 09:25:17;;;;;;;0.60;0.60;;;;;;;;;;6245527;22;20508;-46
2024/03/11 09:27:46;;;;;;;0.50;0.50;;;;;;;;;;6245842;23;20221;-47
2024/03/11 09:33:21;;;;;;;1.20;0.40;;;;;;;;;;6216690;22;20195;-92
2024/03/11 09:35:48;;;;;;;0.40;0.40;;;;;;;;;;6278286;22;20177;-92
2024/03/11 09:38:16;;;;;;;0.30;0.30;;;;;;;;;;6272055;22;20169;-92
2024/03/11 09:40:43;;;;;;;0.60;0.60;;;;;;;;;;6272824;23;20173;-93
2024/03/11 09:43:13;;;;;;;0.50;0.50;;;;;;;;;;6271220;22;20181;-93
2024/03/11 09:45:42;;;;;;;0.50;0.50;;;;;;;;;;6273117;22;20204;-92
2024/03/11 09:48:11;;;;;;;0.50;0.50;;;;;;;;;;6262497;22;20165;-91
2024/03/11 09:50:43;;;;;;;0.60;0.60;;;;;;;;;;6273750;22;20160;-91
2024/03/11 09:53:13;;;;;;;0.80;0.40;;;;;;;;;;6264232;22;20660;-46
2024/03/11 09:55:43;;;;;;;0.38;0.38;;;;;;;;;;6245090;23;20169;-47
2024/03/11 09:58:13;;;;;;;0.50;0.50;;;;;;;;;;6244902;23;20197;-46
2024/03/11 10:00:49;;;;;;;0.50;0.50;;;;;;;;;;6245742;23;20199;-48
2024/03/11 10:03:20;;;;;;;0.40;0.40;;;;;;;;;;6245522;23;20160;-48
2024/03/11 10:05:54;;;;;;;0.35;0.30;;;;;;;;;;6244936;23;20191;-48
2024/03/11 10:08:21;;;;;;;1.33;0.35;;;;;;;;;;6245492;22;20231;-49
2024/03/11 10:11:12;;;;;;;0.45;0.40;;;;;;;;;;6245293;22;20499;-48
2024/03/11 10:13:40;;;;;;;0.43;0.40;;;;;;;;;;6245354;23;20164;-48
2024/03/11 10:16:15;;;;;;;0.30;0.30;;;;;;;;;;6244604;22;20173;-49
2024/03/11 10:18:48;;;;;;;0.28;0.28;;;;;;;;;;6245294;23;20164;-50
2024/03/11 10:21:19;;;;;;;0.30;0.30;;;;;;;;;;6245117;23;20169;-48
2024/03/11 10:23:48;;;;;;;0.38;0.38;;;;;;;;;;6245273;23;20157;-48
2024/03/11 10:26:24;;;;;;;0.47;0.47;;;;;;;;;;6245166;23;20193;-48
2024/03/11 10:28:56;;;;;;;0.40;0.40;;;;;;;;;;6245261;23;20260;-48
2024/03/11 10:31:27;;;;;;;0.30;0.30;;;;;;;;;;6245098;23;20185;-48
2024/03/11 10:34:04;;;;;;;0.40;0.40;;;;;;;;;;6245181;22;20193;-48
2024/03/11 10:36:33;;;;;;;0.40;0.40;;;;;;;;;;6244693;23;20157;-49
2024/03/11 10:39:25;;;;;;;0.45;0.45;;;;;;;;;;6244304;22;20180;-48
2024/03/11 10:41:56;;;;;;;0.40;0.40;;;;;;;;;;6244680;23;20167;-48
2024/03/11 10:44:29;;;;;;;0.40;0.40;;;;;;;;;;6244756;23;20164;-49
2024/03/11 10:47:02;;;;;;;0.50;0.50;;;;;;;;;;6244532;23;20197;-48
2024/03/11 10:49:30;;;;;;;0.52;0.52;;;;;;;;;;6245031;22;20161;-49
2024/03/11 10:52:07;;;;;;;1.55;0.82;;;;;;;;;;6244440;22;20188;-49
2024/03/11 10:54:38;;;;;;;0.75;0.70;;;;;;;;;;6244605;23;20212;-48
2024/03/11 10:57:11;;;;;;;0.50;0.50;;;;;;;;;;6244865;23;20588;-48
2024/03/11 10:59:47;;;;;;;0.40;0.40;;;;;;;;;;6244572;23;20161;-49
2024/03/11 11:02:22;;;;;;;0.50;0.50;;;;;;;;;;6244966;22;20161;-50
2024/03/11 11:04:52;;;;;;;0.30;0.30;;;;;;;;;;6244908;23;20156;-49
2024/03/11 11:07:42;;;;;;;0.50;0.50;;;;;;;;;;6244970;23;20200;-48
2024/03/11 11:10:35;;;;;;;0.45;0.45;;;;;;;;;;6244482;22;20222;-49
2024/03/11 11:13:06;;;;;;;0.32;0.32;;;;;;;;;;6243843;23;20219;-48
2024/03/11 11:15:35;;;;;;;0.30;0.30;;;;;;;;;;6244767;23;20237;-48
2024/03/11 11:18:06;;;;;;;0.38;0.38;;;;;;;;;;6244517;23;20718;-48
2024/03/11 11:20:37;;;;;;;0.40;0.40;;;;;;;;;;6244944;23;20602;-48
2024/03/11 11:23:10;;;;;;;0.30;0.30;;;;;;;;;;6245095;23;20618;-49
2024/03/11 11:25:46;;;;;;;0.30;0.30;;;;;;;;;;6244613;23;20513;-50
2024/03/11 11:28:24;;;;;;;0.35;0.35;;;;;;;;;;6244230;23;20199;-51
2024/03/11 11:31:11;;;;;;;0.40;0.40;;;;;;;;;;6244222;23;20165;-48
2024/03/11 11:33:54;;;;;;;0.25;0.25;;;;;;;;;;6244661;23;20240;-51
2024/03/11 11:36:57;;;;;;;0.40;0.40;;;;;;;;;;6244742;23;20153;-47
2024/03/11 11:39:39;;;;;;;0.22;0.20;;;;;;;;;;6244727;22;20161;-48
2024/03/11 11:42:07;;;;;;;0.30;0.30;;;;;;;;;;6244510;22;20431;-47
2024/03/11 11:44:49;;;;;;;0.80;0.80;;;;;;;;;;6243899;22;20184;-48
2024/03/11 11:47:24;;;;;;;0.60;0.45;;;;;;;;;;6244370;23;20207;-46
2024/03/11 11:49:52;;;;;;;0.35;0.35;;;;;;;;;;6244561;23;20186;-47
2024/03/11 11:52:19;;;;;;;0.35;0.35;;;;;;;;;;6243772;22;20223;-49
2024/03/11 11:54:50;;;;;;;0.60;0.60;;;;;;;;;;6243635;22;20181;-48
2024/03/11 11:57:21;;;;;;;0.47;0.47;;;;;;;;;;6244149;23;20197;-47
2024/03/11 11:59:56;;;;;;;0.50;0.50;;;;;;;;;;6244615;23;20586;-47
2024/03/11 12:02:27;;;;;;;0.90;0.90;;;;;;;;;;6244555;23;20241;-51
2024/03/11 12:04:56;;;;;;;0.52;0.52;;;;;;;;;;6246393;23;20493;-52
2024/03/11 12:07:25;;;;;;;0.45;0.45;;;;;;;;;;6246083;23;20276;-51
2024/03/11 12:09:55;;;;;;;0.50;0.50;;;;;;;;;;6246296;23;20192;-48
2024/03/11 12:12:30;;;;;;;0.40;0.40;;;;;;;;;;6245788;23;20215;-48
2024/03/11 12:14:57;;;;;;;0.32;0.32;;;;;;;;;;6246438;23;20711;-49
2024/03/11 12:17:28;;;;;;;0.30;0.30;;;;;;;;;;6246285;22;20195;-51
2024/03/11 12:20:14;;;;;;;0.50;0.50;;;;;;;;;;6245942;23;20157;-51
2024/03/11 12:22:42;;;;;;;0.40;0.40;;;;;;;;;;6245519;23;20176;-49
2024/03/11 12:25:13;;;;;;;0.40;0.40;;;;;;;;;;6246083;22;20467;-50
2024/03/11 12:27:43;;;;;;;0.30;0.30;;;;;;;;;;6246128;23;20205;-48
2024/03/11 12:30:18;;;;;;;0.47;0.47;;;;;;;;;;6245639;22;20223;-48
2024/03/11 12:32:56;;;;;;;0.30;0.30;;;;;;;;;;6245923;23;20180;-49
2024/03/11 12:35:25;;;;;;;0.70;0.70;;;;;;;;;;6246143;23;20598;-50
2024/03/11 12:37:53;;;;;;;0.50;0.50;;;;;;;;;;6246042;22;20189;-48
2024/03/11 12:40:23;;;;;;;0.50;0.50;;;;;;;;;;6245574;22;20523;-49
2024/03/11 12:42:52;;;;;;;0.47;0.47;;;;;;;;;;6245280;23;20177;-48
2024/03/11 12:45:34;;;;;;;0.40;0.40;;;;;;;;;;6246032;23;20177;-51
2024/03/11 12:48:02;;;;;;;0.60;0.60;;;;;;;;;;6245290;22;20669;-48
2024/03/11 12:50:29;;;;;;;0.60;0.60;;;;;;;;;;6245424;22;20563;-48
2024/03/11 12:53:03;;;;;;;3.05;2.60;;;;;;;;;;6244833;22;20179;-48
2024/03/11 12:55:31;;;;;;;1.00;0.90;;;;;;;;;;6245964;23;20215;-48
2024/03/11 12:58:04;;;;;;;1.00;0.80;;;;;;;;;;6244723;22;20192;-48
2024/03/11 13:00:33;;;;;;;0.70;0.70;;;;;;;;;;6246450;23;20211;-51
2024/03/11 13:03:11;;;;;;;1.10;0.55;;;;;;;;;;6245554;23;20549;-47
2024/03/11 13:05:40;;;;;;;0.82;0.82;;;;;;;;;;6245921;22;20207;-48
2024/03/11 13:08:09;;;;;;;0.70;0.70;;;;;;;;;;6245349;23;20205;-48
2024/03/11 13:10:38;;;;;;;1.33;1.23;;;;;;;;;;6245992;23;20181;-47
2024/03/11 13:13:19;;;;;;;0.60;0.60;;;;;;;;;;6245283;22;20181;-48
2024/03/11 13:15:48;;;;;;;1.00;1.00;;;;;;;;;;6245278;23;20177;-48
2024/03/11 13:18:18;;;;;;;0.70;0.70;;;;;;;;;;6245027;22;20657;-48
2024/03/11 13:20:46;;;;;;;0.68;0.68;;;;;;;;;;6245737;23;20237;-48
2024/03/11 13:23:13;;;;;;;0.85;0.85;;;;;;;;;;6244879;22;20173;-48
2024/03/11 13:25:42;;;;;;;0.70;0.70;;;;;;;;;;6244823;22;20181;-48
2024/03/11 13:28:12;;;;;;;0.93;0.90;;;;;;;;;;6245150;22;20204;-48
2024/03/11 13:30:43;;;;;;;1.15;0.75;;;;;;;;;;6245317;23;20178;-48
2024/03/11 13:33:10;;;;;;;0.80;0.80;;;;;;;;;;6245264;23;20176;-48
2024/03/11 13:35:38;;;;;;;0.88;0.88;;;;;;;;;;6245276;22;20180;-48
2024/03/11 13:38:07;;;;;;;0.80;0.80;;;;;;;;;;6244918;22;20683;-48
2024/03/11 13:40:34;;;;;;;1.00;1.00;;;;;;;;;;6245578;23;20177;-47
2024/03/11 13:43:04;;;;;;;2.47;1.05;;;;;;;;;;6244776;23;20204;-47
2024/03/11 13:45:32;;;;;;;1.05;0.95;;;;;;;;;;6245317;22;20183;-48
2024/03/11 13:47:59;;;;;;;0.95;0.93;;;;;;;;;;6244876;23;20197;-48
2024/03/11 13:50:29;;;;;;;1.17;1.08;;;;;;;;;;6245130;22;20629;-51
2024/03/11 13:52:56;;;;;;;0.75;0.75;;;;;;;;;;6244528;23;20180;-47
2024/03/11 13:55:24;;;;;;;0.88;0.88;;;;;;;;;;6245149;22;20525;-48
2024/03/11 13:57:51;;;;;;;0.85;0.85;;;;;;;;;;6244469;22;20197;-48
2024/03/11 14:00:21;;;;;;;1.45;1.20;;;;;;;;;;6245365;22;20260;-48
2024/03/11 14:02:50;;;;;;;0.80;0.80;;;;;;;;;;6245044;22;20508;-47
2024/03/11 14:05:19;;;;;;;1.17;1.15;;;;;;;;;;6244986;23;20180;-48
2024/03/11 14:07:48;;;;;;;0.85;0.85;;;;;;;;;;6245245;23;20529;-49
2024/03/11 14:10:16;;;;;;;0.63;0.63;;;;;;;;;;6245178;23;20629;-47
2024/03/11 14:12:45;;;;;;;0.65;0.65;;;;;;;;;;6245249;23;20189;-47
2024/03/11 14:15:13;;;;;;;0.80;0.80;;;;;;;;;;6244857;22;20633;-47
2024/03/11 14:17:47;;;;;;;0.90;0.90;;;;;;;;;;6245207;23;20272;-47
2024/03/11 14:20:20;;;;;;;0.73;0.73;;;;;;;;;;6245274;23;20602;-47
2024/03/11 14:22:48;;;;;;;0.93;0.93;;;;;;;;;;6245267;23;20496;-46
2024/03/11 14:25:16;;;;;;;1.40;1.30;;;;;;;;;;6244410;22;20173;-50
2024/03/11 14:27:48;;;;;;;0.90;0.90;;;;;;;;;;6244522;23;20201;-47
2024/03/11 14:30:16;;;;;;;1.15;1.15;;;;;;;;;;6245050;23;20157;-48
2024/03/11 14:32:47;;;;;;;1.10;1.00;;;;;;;;;;6245062;22;20183;-47
2024/03/11 14:35:16;;;;;;;1.25;1.20;;;;;;;;;;6245064;23;20531;-47
2024/03/11 14:37:45;;;;;;;1.20;1.10;;;;;;;;;;6244410;22;20189;-47
2024/03/11 14:40:29;;;;;;;0.80;0.80;;;;;;;;;;6244589;23;20184;-47
2024/03/11 14:42:57;;;;;;;0.85;0.85;;;;;;;;;;6244751;23;20153;-47
2024/03/11 14:45:25;;;;;;;0.90;0.90;;;;;;;;;;6244582;23;20177;-49
2024/03/11 14:47:55;;;;;;;1.20;1.10;;;;;;;;;;6243884;22;20222;-48
2024/03/11 14:50:29;;;;;;;1.40;1.30;;;;;;;;;;6244813;23;20180;-50
2024/03/11 14:52:57;;;;;;;0.90;0.90;;;;;;;;;;6244381;23;20165;-47
2024/03/11 14:55:32;;;;;;;1.05;1.05;;;;;;;;;;6244525;22;20227;-48